Time;durP1;ratioP1;P1;durP2;ratioP2;P2;SDS_P1;SDS_P2;PMS_P1;PMS_P2;Temp;Humidity;BMP_temperature;BMP_pressure;BME280_temperature;BME280_humidity;BME280_pressure;Samples;Min_cycle;Max_cycle;Signal;HPM_P1;HPM_P2
2023/01/17 00:02:00;;;;;;;1.10;1.00;;;;;;;;;;5077478;28;20212;-68
2023/01/17 00:10:00;;;;;;;1.00;0.90;;;;;;;;;;5071360;28;20199;-67
2023/01/17 00:12:28;;;;;;;0.85;0.85;;;;;;;;;;5057828;28;20204;-68
2023/01/17 00:14:58;;;;;;;0.70;0.70;;;;;;;;;;5058076;28;20213;-68
2023/01/17 00:17:27;;;;;;;0.93;0.80;;;;;;;;;;5058186;28;20213;-68
2023/01/17 01:34:55;;;;;;;0.80;0.50;;;;;;;;;;5056897;28;20224;-68
2023/01/17 01:37:25;;;;;;;0.50;0.50;;;;;;;;;;5056535;28;20237;-68
2023/01/17 01:39:52;;;;;;;0.65;0.52;;;;;;;;;;5056590;28;20266;-68
2023/01/17 01:42:20;;;;;;;0.52;0.40;;;;;;;;;;5056906;28;20271;-68
2023/01/17 01:44:49;;;;;;;0.57;0.52;;;;;;;;;;5056922;28;20205;-68
2023/01/17 01:47:21;;;;;;;0.40;0.40;;;;;;;;;;5056896;28;20209;-68
2023/01/17 01:49:49;;;;;;;0.70;0.55;;;;;;;;;;5057185;28;20306;-69
2023/01/17 01:52:17;;;;;;;0.38;0.38;;;;;;;;;;5056941;28;20211;-68
2023/01/17 01:54:48;;;;;;;0.40;0.40;;;;;;;;;;5057181;28;20208;-68
2023/01/17 01:57:17;;;;;;;0.60;0.60;;;;;;;;;;5056836;28;20248;-69
2023/01/17 01:59:47;;;;;;;0.63;0.50;;;;;;;;;;5056756;28;20303;-68
2023/01/17 02:02:15;;;;;;;0.52;0.50;;;;;;;;;;5056666;28;20236;-68
2023/01/17 02:04:43;;;;;;;0.50;0.40;;;;;;;;;;5055816;28;20205;-68
2023/01/17 02:07:13;;;;;;;0.50;0.50;;;;;;;;;;5056826;28;20213;-68
2023/01/17 02:09:41;;;;;;;0.60;0.40;;;;;;;;;;5056748;28;20240;-68
2023/01/17 02:12:10;;;;;;;0.40;0.40;;;;;;;;;;5056867;28;20205;-68
2023/01/17 02:14:38;;;;;;;0.40;0.40;;;;;;;;;;5065422;28;20278;-68
2023/01/17 02:17:12;;;;;;;0.73;0.60;;;;;;;;;;5076739;28;20205;-68
2023/01/17 02:20:09;;;;;;;0.50;0.40;;;;;;;;;;5076603;28;20213;-68
2023/01/17 02:22:47;;;;;;;0.40;0.40;;;;;;;;;;5076379;28;20200;-68
2023/01/17 02:25:23;;;;;;;0.38;0.38;;;;;;;;;;5076743;28;20345;-68
2023/01/17 02:27:59;;;;;;;0.38;0.38;;;;;;;;;;5080115;28;20211;-68
2023/01/17 02:30:33;;;;;;;0.47;0.47;;;;;;;;;;5080383;28;20204;-69
2023/01/17 02:33:07;;;;;;;0.55;0.55;;;;;;;;;;5079913;28;20307;-68
2023/01/17 02:35:37;;;;;;;0.60;0.45;;;;;;;;;;5080188;28;20266;-68
2023/01/17 02:38:09;;;;;;;0.50;0.50;;;;;;;;;;5079885;28;20200;-68
2023/01/17 02:40:39;;;;;;;0.50;0.50;;;;;;;;;;5079855;28;20218;-68
2023/01/17 02:43:08;;;;;;;0.40;0.40;;;;;;;;;;5080303;28;20595;-69
2023/01/17 02:45:37;;;;;;;0.50;0.50;;;;;;;;;;5079968;28;20204;-69
2023/01/17 02:48:06;;;;;;;0.50;0.43;;;;;;;;;;5079883;28;20228;-68
2023/01/17 02:50:41;;;;;;;0.40;0.40;;;;;;;;;;5079629;28;20205;-68
2023/01/17 02:53:19;;;;;;;0.55;0.50;;;;;;;;;;5079593;28;20215;-68
2023/01/17 02:55:52;;;;;;;0.47;0.45;;;;;;;;;;5079602;28;20235;-68
2023/01/17 02:58:35;;;;;;;0.57;0.57;;;;;;;;;;5079328;28;20243;-68
2023/01/17 03:01:10;;;;;;;0.40;0.40;;;;;;;;;;5079334;28;20639;-68
2023/01/17 03:03:43;;;;;;;0.52;0.52;;;;;;;;;;5079517;28;20207;-68
2023/01/17 03:06:12;;;;;;;0.50;0.50;;;;;;;;;;5078781;28;20204;-68
2023/01/17 03:08:41;;;;;;;0.60;0.50;;;;;;;;;;5078546;28;20635;-69
2023/01/17 03:11:09;;;;;;;0.60;0.40;;;;;;;;;;5079326;28;20547;-68
2023/01/17 03:13:37;;;;;;;0.50;0.50;;;;;;;;;;5079522;28;20197;-68
2023/01/17 03:16:07;;;;;;;0.50;0.50;;;;;;;;;;5078892;28;20204;-68
2023/01/17 03:18:35;;;;;;;0.60;0.50;;;;;;;;;;5078890;28;20200;-68
2023/01/17 03:21:03;;;;;;;0.65;0.60;;;;;;;;;;5078818;28;20278;-68
2023/01/17 03:23:31;;;;;;;0.50;0.50;;;;;;;;;;5078788;28;20204;-68
2023/01/17 03:25:58;;;;;;;0.80;0.55;;;;;;;;;;5079028;28;20240;-68
2023/01/17 03:28:26;;;;;;;0.50;0.50;;;;;;;;;;5078842;28;20228;-68
2023/01/17 03:30:54;;;;;;;0.73;0.50;;;;;;;;;;5078983;28;20204;-68
2023/01/17 03:33:23;;;;;;;0.80;0.40;;;;;;;;;;5078589;28;20205;-68
2023/01/17 03:35:51;;;;;;;0.60;0.60;;;;;;;;;;5079274;28;20309;-68
2023/01/17 03:38:19;;;;;;;0.50;0.50;;;;;;;;;;5078421;28;20204;-69
2023/01/17 03:40:47;;;;;;;0.60;0.60;;;;;;;;;;5078249;28;20220;-68
2023/01/17 03:43:14;;;;;;;0.60;0.50;;;;;;;;;;5078616;28;20204;-68
2023/01/17 03:45:42;;;;;;;0.50;0.50;;;;;;;;;;5078716;28;20547;-68
2023/01/17 03:48:10;;;;;;;0.95;0.60;;;;;;;;;;5078445;28;20761;-68
2023/01/17 03:50:39;;;;;;;0.50;0.50;;;;;;;;;;5078230;28;20295;-69
2023/01/17 03:53:07;;;;;;;0.57;0.57;;;;;;;;;;5078425;28;20216;-69
2023/01/17 03:55:35;;;;;;;0.60;0.60;;;;;;;;;;5078441;28;20247;-68
2023/01/17 03:58:02;;;;;;;0.40;0.40;;;;;;;;;;5078531;28;20518;-68
2023/01/17 04:00:30;;;;;;;0.77;0.60;;;;;;;;;;5078156;28;20295;-69
2023/01/17 04:02:58;;;;;;;0.60;0.60;;;;;;;;;;5078358;28;20214;-67
2023/01/17 04:05:25;;;;;;;0.60;0.50;;;;;;;;;;5078388;28;20247;-68
2023/01/17 04:07:55;;;;;;;0.80;0.60;;;;;;;;;;5078252;28;20207;-68
2023/01/17 04:10:22;;;;;;;0.70;0.50;;;;;;;;;;5076769;28;20278;-68
2023/01/17 04:12:50;;;;;;;0.50;0.50;;;;;;;;;;5077718;28;20576;-68
2023/01/17 04:15:18;;;;;;;0.50;0.50;;;;;;;;;;5077944;28;20270;-68
2023/01/17 04:17:45;;;;;;;0.75;0.50;;;;;;;;;;5078096;28;20204;-68
2023/01/17 04:20:16;;;;;;;0.70;0.57;;;;;;;;;;5078036;28;20526;-68
2023/01/17 04:22:43;;;;;;;0.57;0.55;;;;;;;;;;5077906;28;20204;-68
2023/01/17 04:25:12;;;;;;;0.50;0.50;;;;;;;;;;5077775;28;20498;-69
2023/01/17 04:27:40;;;;;;;0.55;0.50;;;;;;;;;;5077598;28;20215;-68
2023/01/17 04:30:08;;;;;;;0.80;0.70;;;;;;;;;;5077686;28;20228;-68
2023/01/17 04:32:36;;;;;;;0.70;0.60;;;;;;;;;;5077420;28;20254;-68
2023/01/17 04:35:05;;;;;;;0.80;0.63;;;;;;;;;;5077742;28;20204;-69
2023/01/17 04:37:33;;;;;;;0.50;0.50;;;;;;;;;;5077841;28;20277;-68
2023/01/17 04:40:02;;;;;;;0.43;0.43;;;;;;;;;;5077412;28;20490;-68
2023/01/17 04:42:31;;;;;;;0.55;0.55;;;;;;;;;;5076958;28;20203;-68
2023/01/17 04:44:59;;;;;;;0.60;0.60;;;;;;;;;;5077079;28;20269;-68
2023/01/17 04:47:27;;;;;;;0.90;0.65;;;;;;;;;;5076663;28;20204;-68
2023/01/17 04:49:54;;;;;;;0.75;0.70;;;;;;;;;;5076295;28;20228;-67
2023/01/17 04:52:24;;;;;;;0.60;0.50;;;;;;;;;;5076804;28;20269;-69
2023/01/17 04:54:51;;;;;;;1.05;0.70;;;;;;;;;;5076958;28;20204;-68
2023/01/17 04:57:19;;;;;;;0.40;0.40;;;;;;;;;;5076516;28;20228;-68
2023/01/17 04:59:48;;;;;;;0.50;0.50;;;;;;;;;;5076907;28;20596;-68
2023/01/17 05:02:16;;;;;;;1.48;0.60;;;;;;;;;;5076653;28;20204;-68
2023/01/17 05:04:43;;;;;;;0.65;0.60;;;;;;;;;;5076716;28;20299;-68
2023/01/17 05:07:11;;;;;;;0.52;0.50;;;;;;;;;;5075848;28;20490;-68
2023/01/17 05:09:38;;;;;;;1.20;0.50;;;;;;;;;;5075911;28;20592;-68
2023/01/17 05:12:06;;;;;;;0.70;0.60;;;;;;;;;;5076535;28;20238;-68
2023/01/17 05:14:33;;;;;;;0.60;0.60;;;;;;;;;;5076541;28;20214;-69
2023/01/17 05:17:02;;;;;;;0.75;0.75;;;;;;;;;;5075883;28;20234;-68
2023/01/17 05:19:30;;;;;;;0.60;0.60;;;;;;;;;;5076499;28;20494;-68
2023/01/17 05:22:02;;;;;;;0.70;0.70;;;;;;;;;;5075951;28;20253;-68
2023/01/17 05:24:30;;;;;;;0.60;0.60;;;;;;;;;;5076571;28;20215;-68
2023/01/17 05:27:01;;;;;;;0.80;0.80;;;;;;;;;;5076452;28;20204;-68
2023/01/17 05:29:30;;;;;;;0.70;0.70;;;;;;;;;;5076108;28;20242;-67
2023/01/17 05:31:57;;;;;;;1.58;0.80;;;;;;;;;;5075462;28;20726;-68
2023/01/17 05:34:26;;;;;;;0.80;0.80;;;;;;;;;;5075534;28;20247;-68
2023/01/17 05:36:53;;;;;;;0.70;0.70;;;;;;;;;;5076134;28;20306;-68
2023/01/17 05:39:21;;;;;;;0.75;0.70;;;;;;;;;;5075676;28;20207;-68
2023/01/17 05:41:48;;;;;;;0.70;0.68;;;;;;;;;;5075599;28;20235;-68
2023/01/17 05:44:16;;;;;;;0.70;0.70;;;;;;;;;;5076137;28;20298;-68
2023/01/17 05:46:43;;;;;;;1.02;0.73;;;;;;;;;;5075928;28;20263;-68
2023/01/17 05:49:11;;;;;;;0.57;0.57;;;;;;;;;;5074742;28;20524;-68
2023/01/17 05:51:39;;;;;;;0.70;0.60;;;;;;;;;;5074771;28;20203;-68
2023/01/17 05:54:07;;;;;;;0.82;0.70;;;;;;;;;;5074562;28;20311;-68
2023/01/17 05:56:34;;;;;;;0.95;0.85;;;;;;;;;;5074486;28;20281;-68
2023/01/17 05:59:02;;;;;;;1.13;0.70;;;;;;;;;;5074360;28;20246;-69
2023/01/17 06:01:29;;;;;;;0.85;0.73;;;;;;;;;;5077714;28;20300;-68
2023/01/17 06:03:57;;;;;;;0.60;0.57;;;;;;;;;;5077356;28;20215;-68
2023/01/17 06:06:24;;;;;;;0.70;0.68;;;;;;;;;;5077364;28;20236;-68
2023/01/17 06:08:53;;;;;;;0.70;0.65;;;;;;;;;;5077959;28;20295;-68
2023/01/17 06:11:20;;;;;;;0.80;0.80;;;;;;;;;;5076555;28;20632;-68
2023/01/17 06:13:49;;;;;;;1.30;0.82;;;;;;;;;;5076887;28;20212;-68
2023/01/17 06:16:16;;;;;;;0.88;0.60;;;;;;;;;;5077228;28;20204;-68
2023/01/17 06:18:44;;;;;;;0.68;0.68;;;;;;;;;;5077685;28;20559;-69
2023/01/17 06:21:11;;;;;;;0.85;0.65;;;;;;;;;;5076841;28;20299;-68
2023/01/17 06:23:38;;;;;;;1.20;1.05;;;;;;;;;;5076905;28;20222;-68
2023/01/17 06:26:07;;;;;;;0.82;0.80;;;;;;;;;;5076906;28;20261;-68
2023/01/17 06:28:35;;;;;;;0.75;0.70;;;;;;;;;;5076544;28;20306;-68
2023/01/17 06:31:06;;;;;;;0.82;0.70;;;;;;;;;;5076270;28;20220;-69
2023/01/17 06:33:34;;;;;;;0.80;0.70;;;;;;;;;;5076553;28;20205;-68
2023/01/17 06:36:01;;;;;;;0.77;0.70;;;;;;;;;;5076710;28;20294;-68
2023/01/17 06:38:28;;;;;;;0.73;0.70;;;;;;;;;;5076825;28;20299;-68
2023/01/17 06:40:59;;;;;;;0.50;0.50;;;;;;;;;;5077324;28;20299;-68
2023/01/17 06:43:32;;;;;;;0.93;0.70;;;;;;;;;;5077779;28;20204;-68
2023/01/17 06:46:01;;;;;;;0.75;0.73;;;;;;;;;;5076473;28;20212;-67
2023/01/17 06:48:28;;;;;;;0.73;0.73;;;;;;;;;;5077239;28;20266;-67
2023/01/17 06:50:57;;;;;;;0.82;0.80;;;;;;;;;;5076864;28;20275;-67
2023/01/17 06:53:25;;;;;;;0.80;0.80;;;;;;;;;;5077016;28;20667;-67
2023/01/17 06:55:52;;;;;;;0.88;0.82;;;;;;;;;;5073081;28;20327;-67
2023/01/17 06:58:20;;;;;;;0.75;0.70;;;;;;;;;;5057370;28;20263;-67
2023/01/17 07:00:48;;;;;;;1.13;0.80;;;;;;;;;;5056979;28;20247;-67
2023/01/17 07:03:19;;;;;;;0.75;0.70;;;;;;;;;;5056718;28;20304;-67
2023/01/17 07:05:48;;;;;;;0.85;0.70;;;;;;;;;;5056274;28;20795;-67
2023/01/17 07:08:17;;;;;;;0.70;0.60;;;;;;;;;;5057080;28;20201;-67
2023/01/17 07:10:46;;;;;;;1.50;0.80;;;;;;;;;;5056551;28;20221;-67
2023/01/17 07:13:13;;;;;;;0.93;0.70;;;;;;;;;;5055730;28;20215;-67
2023/01/17 07:15:41;;;;;;;1.00;0.80;;;;;;;;;;5056033;28;20307;-67
2023/01/17 07:18:10;;;;;;;0.80;0.75;;;;;;;;;;5056188;28;20769;-67
2023/01/17 07:20:37;;;;;;;2.25;0.85;;;;;;;;;;5056586;28;20197;-67
2023/01/17 07:23:06;;;;;;;1.05;0.73;;;;;;;;;;5056591;28;20304;-67
2023/01/17 07:25:35;;;;;;;1.35;0.73;;;;;;;;;;5055905;28;20213;-68
2023/01/17 07:28:02;;;;;;;0.80;0.70;;;;;;;;;;5056126;28;20700;-67
2023/01/17 07:30:30;;;;;;;1.15;0.80;;;;;;;;;;5056199;28;20324;-68
2023/01/17 07:32:57;;;;;;;1.45;0.90;;;;;;;;;;5044705;28;20205;-67
2023/01/17 07:35:26;;;;;;;0.80;0.80;;;;;;;;;;5036444;28;20198;-67
2023/01/17 07:37:54;;;;;;;0.80;0.80;;;;;;;;;;5036315;28;20268;-67
2023/01/17 07:40:22;;;;;;;0.60;0.60;;;;;;;;;;5036149;28;20778;-67
2023/01/17 07:42:49;;;;;;;1.42;0.90;;;;;;;;;;5036483;28;20206;-67
2023/01/17 07:45:17;;;;;;;0.68;0.60;;;;;;;;;;5036267;28;20216;-67
2023/01/17 07:47:45;;;;;;;1.50;0.90;;;;;;;;;;5035297;28;20632;-67
2023/01/17 07:50:13;;;;;;;2.15;0.70;;;;;;;;;;5035260;28;20312;-67
2023/01/17 07:52:42;;;;;;;1.00;0.90;;;;;;;;;;5035399;28;20226;-67
2023/01/17 07:55:10;;;;;;;0.93;0.80;;;;;;;;;;5035507;28;20252;-68
2023/01/17 07:57:37;;;;;;;0.90;0.77;;;;;;;;;;5072000;28;20228;-67
2023/01/17 08:00:05;;;;;;;1.10;0.90;;;;;;;;;;5075691;28;20197;-67
2023/01/17 08:02:33;;;;;;;1.00;0.80;;;;;;;;;;5074655;28;20295;-67
2023/01/17 08:05:00;;;;;;;2.67;0.90;;;;;;;;;;5074761;28;20295;-68
2023/01/17 08:07:28;;;;;;;1.17;1.00;;;;;;;;;;5074134;28;20298;-67
2023/01/17 08:09:57;;;;;;;1.40;0.82;;;;;;;;;;5073140;28;20242;-67
2023/01/17 08:12:25;;;;;;;1.27;0.90;;;;;;;;;;5075487;28;20686;-67
2023/01/17 08:14:53;;;;;;;0.68;0.65;;;;;;;;;;5075435;28;20211;-67
2023/01/17 08:17:20;;;;;;;0.55;0.55;;;;;;;;;;5075594;28;20210;-67
2023/01/17 08:19:50;;;;;;;1.42;0.80;;;;;;;;;;5075172;28;20266;-67
2023/01/17 08:22:18;;;;;;;0.95;0.80;;;;;;;;;;5075348;28;20204;-67
2023/01/17 08:24:46;;;;;;;0.95;0.65;;;;;;;;;;5073526;28;20211;-67
2023/01/17 08:27:15;;;;;;;0.98;0.80;;;;;;;;;;5074192;28;20291;-67
2023/01/17 08:29:45;;;;;;;1.33;0.80;;;;;;;;;;5074346;28;20513;-67
2023/01/17 08:32:13;;;;;;;1.23;0.80;;;;;;;;;;5074644;28;20207;-67
2023/01/17 08:34:40;;;;;;;1.00;0.90;;;;;;;;;;5074494;28;20243;-67
2023/01/17 08:37:08;;;;;;;0.88;0.80;;;;;;;;;;5075104;28;20303;-67
2023/01/17 08:39:35;;;;;;;0.63;0.63;;;;;;;;;;5075281;28;20227;-67
2023/01/17 08:42:03;;;;;;;0.80;0.70;;;;;;;;;;5075160;28;20200;-67
2023/01/17 08:44:32;;;;;;;1.17;0.82;;;;;;;;;;5075182;28;20287;-67
2023/01/17 08:46:59;;;;;;;0.75;0.75;;;;;;;;;;5074647;28;20301;-67
2023/01/17 08:49:26;;;;;;;0.98;0.88;;;;;;;;;;5074532;28;20290;-67
2023/01/17 08:51:54;;;;;;;1.02;0.90;;;;;;;;;;5073749;28;20232;-67
2023/01/17 08:54:21;;;;;;;1.08;0.70;;;;;;;;;;5074384;28;20208;-67
2023/01/17 08:56:51;;;;;;;0.90;0.90;;;;;;;;;;5074528;28;20236;-67
2023/01/17 08:59:19;;;;;;;0.70;0.70;;;;;;;;;;5074141;28;20258;-67
2023/01/17 09:01:47;;;;;;;0.88;0.75;;;;;;;;;;5075491;28;20200;-67
2023/01/17 09:04:15;;;;;;;1.05;0.80;;;;;;;;;;5075160;28;20280;-67
2023/01/17 09:06:44;;;;;;;1.42;0.82;;;;;;;;;;5074690;28;20299;-67
2023/01/17 09:09:12;;;;;;;1.00;0.80;;;;;;;;;;5074869;28;20211;-67
2023/01/17 09:11:39;;;;;;;0.95;0.73;;;;;;;;;;5074117;28;20220;-67
2023/01/17 09:14:07;;;;;;;0.70;0.70;;;;;;;;;;5073771;28;20303;-67
2023/01/17 09:16:34;;;;;;;0.98;0.75;;;;;;;;;;5074161;28;20245;-67
2023/01/17 09:19:03;;;;;;;0.85;0.80;;;;;;;;;;5074384;28;20243;-67
2023/01/17 09:21:31;;;;;;;1.00;0.82;;;;;;;;;;5075278;28;20294;-67
2023/01/17 09:23:58;;;;;;;0.70;0.70;;;;;;;;;;5074951;28;20762;-67
2023/01/17 09:26:27;;;;;;;1.13;0.80;;;;;;;;;;5074138;28;20588;-67
2023/01/17 09:28:55;;;;;;;0.88;0.80;;;;;;;;;;5074146;28;20294;-67
2023/01/17 09:31:22;;;;;;;1.85;0.80;;;;;;;;;;5073853;28;20319;-67
2023/01/17 09:33:50;;;;;;;2.20;0.90;;;;;;;;;;5073924;28;20239;-67
2023/01/17 09:36:19;;;;;;;1.48;0.70;;;;;;;;;;5076936;28;20307;-67
2023/01/17 09:38:47;;;;;;;1.10;0.60;;;;;;;;;;5077789;28;20298;-67
2023/01/17 09:41:20;;;;;;;1.58;0.82;;;;;;;;;;5077731;28;20207;-67
2023/01/17 09:43:50;;;;;;;0.70;0.70;;;;;;;;;;5079005;28;20235;-67
2023/01/17 09:46:21;;;;;;;0.90;0.90;;;;;;;;;;5078831;28;20204;-67
2023/01/17 09:48:49;;;;;;;1.15;0.82;;;;;;;;;;5077415;28;20243;-67
2023/01/17 09:51:22;;;;;;;1.42;0.90;;;;;;;;;;5077735;28;20228;-67
2023/01/17 09:53:50;;;;;;;0.80;0.80;;;;;;;;;;5078190;28;20303;-67
2023/01/17 09:56:20;;;;;;;1.00;0.90;;;;;;;;;;5076228;28;20239;-67
2023/01/17 09:58:53;;;;;;;0.68;0.60;;;;;;;;;;5078150;28;20236;-68
2023/01/17 10:01:28;;;;;;;1.20;0.80;;;;;;;;;;5077744;28;20287;-67
2023/01/17 10:04:06;;;;;;;1.52;0.75;;;;;;;;;;5077656;28;20401;-67
2023/01/17 10:06:43;;;;;;;0.93;0.82;;;;;;;;;;5078918;28;20569;-67
2023/01/17 10:09:21;;;;;;;1.00;0.60;;;;;;;;;;5077616;28;20295;-67
2023/01/17 10:11:53;;;;;;;0.70;0.68;;;;;;;;;;5077751;28;20318;-67
2023/01/17 10:14:27;;;;;;;0.80;0.80;;;;;;;;;;5076956;28;20668;-67
2023/01/17 10:16:58;;;;;;;0.90;0.90;;;;;;;;;;5077658;28;20295;-67
2023/01/17 10:19:36;;;;;;;0.80;0.75;;;;;;;;;;5076849;28;20275;-67
2023/01/17 10:22:15;;;;;;;0.77;0.77;;;;;;;;;;5077177;28;20220;-67
2023/01/17 10:25:04;;;;;;;0.68;0.60;;;;;;;;;;5076105;28;20236;-67
2023/01/17 10:27:33;;;;;;;0.80;0.80;;;;;;;;;;5071286;28;20212;-67
2023/01/17 10:30:02;;;;;;;0.90;0.77;;;;;;;;;;5077606;28;20216;-67
2023/01/17 10:32:30;;;;;;;0.93;0.65;;;;;;;;;;5077509;28;20323;-67
2023/01/17 10:34:58;;;;;;;1.02;0.90;;;;;;;;;;5076352;28;20196;-67
2023/01/17 10:37:33;;;;;;;0.63;0.63;;;;;;;;;;5075988;28;20209;-67
2023/01/17 10:40:03;;;;;;;0.65;0.63;;;;;;;;;;5076280;28;20588;-67
2023/01/17 10:42:34;;;;;;;0.73;0.73;;;;;;;;;;5076182;28;20291;-67
2023/01/17 10:45:04;;;;;;;0.90;0.70;;;;;;;;;;5076736;28;20204;-67
2023/01/17 10:47:33;;;;;;;0.80;0.80;;;;;;;;;;5075201;28;20212;-67
2023/01/17 10:50:04;;;;;;;0.55;0.55;;;;;;;;;;5075821;28;20204;-67
2023/01/17 10:52:39;;;;;;;0.95;0.82;;;;;;;;;;5075570;28;20608;-67
2023/01/17 10:55:10;;;;;;;0.50;0.50;;;;;;;;;;5075467;28;20726;-67
2023/01/17 10:57:39;;;;;;;0.70;0.70;;;;;;;;;;5076275;28;20224;-67
2023/01/17 11:00:21;;;;;;;0.77;0.63;;;;;;;;;;5076086;28;20295;-67
2023/01/17 11:02:49;;;;;;;0.60;0.60;;;;;;;;;;5076106;28;20246;-67
2023/01/17 11:05:21;;;;;;;0.95;0.70;;;;;;;;;;5076769;28;20205;-67
2023/01/17 11:07:59;;;;;;;1.13;0.63;;;;;;;;;;5075618;28;20299;-67
2023/01/17 11:10:38;;;;;;;0.85;0.60;;;;;;;;;;5074906;28;20306;-67
2023/01/17 11:13:07;;;;;;;1.30;0.80;;;;;;;;;;5075916;28;20250;-67
2023/01/17 11:15:37;;;;;;;0.80;0.80;;;;;;;;;;5075573;28;20215;-67
2023/01/17 11:18:06;;;;;;;0.80;0.80;;;;;;;;;;5075967;28;20196;-67
2023/01/17 11:20:35;;;;;;;0.80;0.80;;;;;;;;;;5075140;28;20518;-67
2023/01/17 11:23:13;;;;;;;0.85;0.80;;;;;;;;;;5075623;28;20314;-67
2023/01/17 11:25:41;;;;;;;1.02;0.65;;;;;;;;;;5075671;28;20208;-67
2023/01/17 11:28:20;;;;;;;0.80;0.75;;;;;;;;;;5076003;28;20205;-67
2023/01/17 11:30:52;;;;;;;0.73;0.73;;;;;;;;;;5075738;28;20204;-67
2023/01/17 11:33:29;;;;;;;0.63;0.60;;;;;;;;;;5075994;28;20211;-67
2023/01/17 11:35:56;;;;;;;1.08;0.60;;;;;;;;;;5075066;28;20283;-67
2023/01/17 11:38:25;;;;;;;1.02;0.70;;;;;;;;;;5075927;28;20266;-67
2023/01/17 11:41:17;;;;;;;0.70;0.70;;;;;;;;;;5074733;28;20243;-67
2023/01/17 11:43:49;;;;;;;1.08;0.93;;;;;;;;;;5075239;28;20200;-67
2023/01/17 11:46:19;;;;;;;0.85;0.70;;;;;;;;;;5076256;28;20294;-67
2023/01/17 11:48:48;;;;;;;0.70;0.60;;;;;;;;;;5075228;28;20219;-67
2023/01/17 11:51:19;;;;;;;0.63;0.60;;;;;;;;;;5075170;28;20216;-66
2023/01/17 11:53:48;;;;;;;0.80;0.63;;;;;;;;;;5074615;28;20700;-67
2023/01/17 11:56:30;;;;;;;1.13;0.70;;;;;;;;;;5075102;28;20612;-67
2023/01/17 11:59:16;;;;;;;0.60;0.60;;;;;;;;;;5074802;28;20212;-67
2023/01/17 12:01:47;;;;;;;0.60;0.60;;;;;;;;;;5074324;28;20492;-67
2023/01/17 12:04:25;;;;;;;0.52;0.52;;;;;;;;;;5067439;28;20307;-67
2023/01/17 12:06:58;;;;;;;0.70;0.70;;;;;;;;;;5073529;28;20581;-67
2023/01/17 12:09:32;;;;;;;0.95;0.95;;;;;;;;;;5073926;28;20196;-67
2023/01/17 12:14:55;;;;;;;1.30;0.70;;;;;;;;;;5073130;28;20611;-67
2023/01/17 12:17:29;;;;;;;0.95;0.73;;;;;;;;;;5073122;28;20287;-67
2023/01/17 12:20:04;;;;;;;0.80;0.80;;;;;;;;;;5073337;28;20200;-67
2023/01/17 12:22:46;;;;;;;0.90;0.73;;;;;;;;;;5073504;28;20203;-67
2023/01/17 12:25:24;;;;;;;0.90;0.68;;;;;;;;;;5073719;28;20210;-67
2023/01/17 12:27:58;;;;;;;1.25;0.70;;;;;;;;;;5073565;28;20192;-67
2023/01/17 12:30:29;;;;;;;0.70;0.70;;;;;;;;;;5073705;28;20312;-67
2023/01/17 12:33:05;;;;;;;0.60;0.60;;;;;;;;;;5074016;28;20319;-67
2023/01/17 12:35:37;;;;;;;0.63;0.63;;;;;;;;;;5073910;28;20273;-67
2023/01/17 12:38:06;;;;;;;0.60;0.60;;;;;;;;;;5073000;28;20200;-67
2023/01/17 12:40:37;;;;;;;0.70;0.70;;;;;;;;;;5073653;28;20287;-67
2023/01/17 12:43:08;;;;;;;0.73;0.68;;;;;;;;;;5072740;28;20194;-67
2023/01/17 12:45:39;;;;;;;0.88;0.70;;;;;;;;;;5073454;28;20205;-67
2023/01/17 12:48:10;;;;;;;0.90;0.90;;;;;;;;;;5072464;28;20211;-67
2023/01/17 12:50:40;;;;;;;0.60;0.60;;;;;;;;;;5072905;28;20307;-67
2023/01/17 12:53:15;;;;;;;0.70;0.60;;;;;;;;;;5073362;28;20507;-67
2023/01/17 12:55:49;;;;;;;0.70;0.70;;;;;;;;;;5073400;28;20203;-67
2023/01/17 12:58:21;;;;;;;0.88;0.80;;;;;;;;;;5072727;28;20200;-67
2023/01/17 13:00:50;;;;;;;0.95;0.70;;;;;;;;;;5072865;28;20236;-67
2023/01/17 13:03:23;;;;;;;0.70;0.70;;;;;;;;;;5073857;28;20196;-67
2023/01/17 13:05:52;;;;;;;0.77;0.60;;;;;;;;;;5073382;28;20270;-67
2023/01/17 13:08:24;;;;;;;0.70;0.70;;;;;;;;;;5072434;28;20196;-67
2023/01/17 13:10:54;;;;;;;0.85;0.60;;;;;;;;;;5072610;28;20207;-67
2023/01/17 13:13:23;;;;;;;0.77;0.70;;;;;;;;;;5072664;28;20565;-67
2023/01/17 13:15:53;;;;;;;0.73;0.73;;;;;;;;;;5072771;28;20208;-67
2023/01/17 13:18:24;;;;;;;0.70;0.70;;;;;;;;;;5073261;28;20199;-67
2023/01/17 13:21:09;;;;;;;0.60;0.60;;;;;;;;;;5072644;28;20204;-67
2023/01/17 13:23:45;;;;;;;0.85;0.57;;;;;;;;;;5072761;28;20207;-67
2023/01/17 13:26:20;;;;;;;0.82;0.70;;;;;;;;;;5072765;28;20204;-67
2023/01/17 13:28:52;;;;;;;0.98;0.85;;;;;;;;;;5072934;28;20815;-67
2023/01/17 13:31:23;;;;;;;1.27;0.70;;;;;;;;;;5073398;28;20303;-67
2023/01/17 13:33:59;;;;;;;0.70;0.70;;;;;;;;;;5073017;28;20195;-67
2023/01/17 13:36:34;;;;;;;0.73;0.65;;;;;;;;;;5073234;28;20795;-67
2023/01/17 13:39:08;;;;;;;0.82;0.63;;;;;;;;;;5074500;28;20521;-67
2023/01/17 13:41:46;;;;;;;0.70;0.70;;;;;;;;;;5073370;28;20294;-67
2023/01/17 13:44:24;;;;;;;0.57;0.57;;;;;;;;;;5073403;28;20694;-67
2023/01/17 13:46:55;;;;;;;0.60;0.60;;;;;;;;;;5073079;28;20607;-67
2023/01/17 13:49:32;;;;;;;0.70;0.60;;;;;;;;;;5072957;28;20235;-67
2023/01/17 13:52:06;;;;;;;0.60;0.60;;;;;;;;;;5070389;28;20281;-67
2023/01/17 13:54:34;;;;;;;1.65;0.80;;;;;;;;;;5071282;28;20203;-67
2023/01/17 13:57:19;;;;;;;0.68;0.68;;;;;;;;;;5072210;28;20234;-67
2023/01/17 13:59:48;;;;;;;0.50;0.50;;;;;;;;;;5070787;28;20259;-67
2023/01/17 14:02:34;;;;;;;0.60;0.60;;;;;;;;;;5072137;28;20219;-67
2023/01/17 14:05:12;;;;;;;0.65;0.65;;;;;;;;;;5070185;28;20287;-67
2023/01/17 14:07:43;;;;;;;0.45;0.40;;;;;;;;;;5071758;28;20240;-67
2023/01/17 14:10:33;;;;;;;0.60;0.60;;;;;;;;;;5072480;28;20247;-67
2023/01/17 14:13:01;;;;;;;0.68;0.60;;;;;;;;;;5065324;28;20306;-67
2023/01/17 14:15:33;;;;;;;0.60;0.60;;;;;;;;;;5072618;28;20300;-67
2023/01/17 14:18:02;;;;;;;0.60;0.50;;;;;;;;;;5072192;28;20197;-67
2023/01/17 14:20:47;;;;;;;0.60;0.60;;;;;;;;;;5072834;28;20204;-67
2023/01/17 14:23:26;;;;;;;0.70;0.70;;;;;;;;;;5075781;28;20193;-67
2023/01/17 14:25:53;;;;;;;0.57;0.57;;;;;;;;;;5076223;28;20199;-67
2023/01/17 14:28:23;;;;;;;0.75;0.75;;;;;;;;;;5076005;28;20291;-67
2023/01/17 14:30:54;;;;;;;1.30;0.70;;;;;;;;;;5076301;28;20302;-67
2023/01/17 14:33:26;;;;;;;0.60;0.60;;;;;;;;;;5075714;28;20222;-67
2023/01/17 14:35:55;;;;;;;0.70;0.68;;;;;;;;;;5076354;28;20674;-67
2023/01/17 14:38:23;;;;;;;0.98;0.55;;;;;;;;;;5075487;28;20200;-67
2023/01/17 14:40:52;;;;;;;0.65;0.60;;;;;;;;;;5075439;28;20283;-67
2023/01/17 14:43:20;;;;;;;0.63;0.60;;;;;;;;;;5074838;28;20188;-67
2023/01/17 14:45:48;;;;;;;0.75;0.60;;;;;;;;;;5075799;28;20307;-67
2023/01/17 14:48:19;;;;;;;0.90;0.50;;;;;;;;;;5075268;28;20288;-67
2023/01/17 14:50:47;;;;;;;1.30;0.45;;;;;;;;;;5076299;28;20231;-67
2023/01/17 14:53:18;;;;;;;0.50;0.50;;;;;;;;;;5075403;28;20311;-67
2023/01/17 14:55:53;;;;;;;0.65;0.65;;;;;;;;;;5074037;28;20325;-67
2023/01/17 14:58:22;;;;;;;0.60;0.50;;;;;;;;;;5074269;28;20287;-67
2023/01/17 15:00:50;;;;;;;0.57;0.50;;;;;;;;;;5075201;28;20712;-67
2023/01/17 15:03:19;;;;;;;0.40;0.40;;;;;;;;;;5075156;28;20479;-67
2023/01/17 15:05:48;;;;;;;0.60;0.50;;;;;;;;;;5075098;28;20211;-67
2023/01/17 15:08:17;;;;;;;0.63;0.60;;;;;;;;;;5074532;28;20533;-67
2023/01/17 15:10:47;;;;;;;0.73;0.50;;;;;;;;;;5074485;28;20232;-67
2023/01/17 15:13:17;;;;;;;0.98;0.57;;;;;;;;;;5074513;28;20510;-67
2023/01/17 15:15:45;;;;;;;1.67;0.70;;;;;;;;;;5073809;28;20208;-67
2023/01/17 15:18:21;;;;;;;0.60;0.50;;;;;;;;;;5074474;28;20295;-67
2023/01/17 15:20:51;;;;;;;0.47;0.47;;;;;;;;;;5075460;28;20588;-67
2023/01/17 15:23:21;;;;;;;0.63;0.60;;;;;;;;;;5075615;28;20205;-67
2023/01/17 15:25:49;;;;;;;0.68;0.68;;;;;;;;;;5074861;28;20208;-67
2023/01/17 15:28:16;;;;;;;0.60;0.60;;;;;;;;;;5074526;28;20578;-67
2023/01/17 15:31:08;;;;;;;0.60;0.60;;;;;;;;;;5075158;28;20210;-67
2023/01/17 15:33:38;;;;;;;0.60;0.50;;;;;;;;;;5073408;28;20227;-67
2023/01/17 15:36:06;;;;;;;0.50;0.50;;;;;;;;;;5074782;28;20349;-67
2023/01/17 15:38:34;;;;;;;0.43;0.43;;;;;;;;;;5075168;28;20565;-67
2023/01/17 15:41:08;;;;;;;0.55;0.50;;;;;;;;;;5074831;28;20724;-67
2023/01/17 15:43:36;;;;;;;0.50;0.50;;;;;;;;;;5074742;28;20490;-67
2023/01/17 15:46:04;;;;;;;0.70;0.60;;;;;;;;;;5074138;28;20235;-67
2023/01/17 15:48:39;;;;;;;0.60;0.60;;;;;;;;;;5073567;28;20193;-67
2023/01/17 15:51:07;;;;;;;0.70;0.60;;;;;;;;;;5074096;28;20195;-67
2023/01/17 15:53:36;;;;;;;0.60;0.60;;;;;;;;;;5075282;28;20486;-67
2023/01/17 15:56:19;;;;;;;0.60;0.50;;;;;;;;;;5074362;28;20318;-67
2023/01/17 15:58:47;;;;;;;0.40;0.40;;;;;;;;;;5074136;28;20247;-67
2023/01/17 16:01:16;;;;;;;1.00;0.60;;;;;;;;;;5074980;28;20222;-67
2023/01/17 16:03:54;;;;;;;0.60;0.60;;;;;;;;;;5074633;28;20197;-67
2023/01/17 16:06:37;;;;;;;0.50;0.50;;;;;;;;;;5074633;28;20211;-67
2023/01/17 16:09:04;;;;;;;1.08;0.60;;;;;;;;;;5058898;28;20193;-67
2023/01/17 16:11:32;;;;;;;0.60;0.60;;;;;;;;;;5073870;28;20204;-67
2023/01/17 16:13:59;;;;;;;0.50;0.50;;;;;;;;;;5073766;28;20220;-67
2023/01/17 16:16:27;;;;;;;0.80;0.80;;;;;;;;;;5074226;28;20193;-67
2023/01/17 16:18:58;;;;;;;0.68;0.60;;;;;;;;;;5073982;28;20296;-67
2023/01/17 16:21:27;;;;;;;0.88;0.57;;;;;;;;;;5074448;28;20200;-67
2023/01/17 16:23:55;;;;;;;0.70;0.70;;;;;;;;;;5073226;28;20787;-67
2023/01/17 16:26:23;;;;;;;1.77;0.90;;;;;;;;;;5074419;28;20223;-67